createdAt,value
2023-03-18T00:01:04.216Z,18.33
2023-03-18T00:05:26.283Z,12.82
2023-03-18T00:09:48.823Z,19.10
2023-03-18T00:14:11.327Z,18.60
2023-03-18T00:18:34.540Z,17.67
2023-03-18T00:22:57.659Z,16.15
2023-03-18T00:27:19.895Z,14.15
2023-03-18T00:31:42.267Z,19.98
2023-03-18T00:36:06.705Z,18.75
2023-03-18T00:40:43.196Z,14.93
2023-03-18T00:45:13.674Z,16.63
2023-03-18T00:49:36.817Z,15.90
2023-03-18T00:54:02.130Z,15.63
2023-03-18T00:58:24.783Z,15.52
2023-03-18T01:02:49.447Z,16.08
2023-03-18T01:07:12.639Z,15.82
2023-03-18T01:11:35.058Z,16.77
2023-03-18T01:15:57.670Z,15.15
2023-03-18T01:20:21.257Z,17.30
2023-03-18T01:24:47.640Z,14.88
2023-03-18T01:29:11.557Z,14.10
2023-03-18T01:33:35.836Z,16.98
2023-03-18T01:37:59.039Z,15.95
2023-03-18T01:42:22.418Z,15.68
2023-03-18T01:46:50.205Z,16.50
2023-03-18T01:51:14.572Z,15.57
2023-03-18T01:55:38.493Z,16.20
2023-03-18T02:00:02.185Z,15.45
2023-03-18T02:04:33.311Z,15.98
2023-03-18T02:08:56.212Z,14.93
2023-03-18T02:13:18.873Z,15.63
2023-03-18T02:17:53.874Z,15.20
2023-03-18T02:22:29.580Z,15.13
2023-03-18T02:27:18.601Z,13.13
2023-03-18T02:31:42.624Z,16.45
2023-03-18T02:36:12.354Z,16.83
2023-03-18T02:40:42.791Z,14.18
2023-03-18T02:45:45.716Z,17.42
2023-03-18T02:50:10.114Z,14.35
2023-03-18T02:54:34.026Z,14.82
2023-03-18T02:58:56.216Z,10.45
2023-03-18T03:03:18.752Z,15.90
2023-03-18T03:07:41.696Z,13.40
2023-03-18T03:12:05.428Z,13.57
2023-03-18T03:16:29.755Z,15.07
2023-03-18T03:20:52.741Z,15.02
2023-03-18T03:25:15.421Z,16.23
2023-03-18T03:29:37.256Z,17.48
2023-03-18T03:33:59.747Z,16.42
2023-03-18T03:38:23.279Z,15.48
2023-03-18T03:42:46.400Z,14.35
2023-03-18T03:47:08.638Z,19.02
2023-03-18T03:51:30.479Z,13.30
2023-03-18T03:55:55.636Z,17.67
2023-03-18T04:00:22.918Z,16.02
2023-03-18T04:04:46.401Z,14.85
2023-03-18T04:09:19.562Z,16.15
2023-03-18T04:13:41.743Z,14.65
2023-03-18T04:18:07.185Z,17.70
2023-03-18T04:22:30.752Z,15.85
2023-03-18T04:26:53.263Z,14.70
2023-03-18T04:31:16.834Z,16.90
2023-03-18T04:35:38.854Z,16.17
2023-03-18T04:40:01.701Z,15.77
2023-03-18T04:44:25.634Z,16.75
2023-03-18T04:48:47.782Z,13.30
2023-03-18T04:53:10.076Z,16.33
2023-03-18T04:57:35.631Z,15.82
2023-03-18T05:01:58.283Z,17.15
2023-03-18T05:06:30.163Z,18.67
2023-03-18T05:10:59.511Z,15.38
2023-03-18T05:15:21.525Z,15.13
2023-03-18T05:19:49.358Z,18.23
2023-03-18T05:24:15.708Z,18.20
2023-03-18T05:28:38.050Z,16.08
2023-03-18T05:33:23.433Z,16.35
2023-03-18T05:37:51.324Z,16.48
2023-03-18T05:42:14.301Z,15.15
2023-03-18T05:46:37.149Z,14.77
2023-03-18T05:51:05.988Z,13.50
2023-03-18T05:55:31.173Z,16.42
2023-03-18T05:59:53.785Z,14.60
2023-03-18T06:04:19.499Z,16.45
2023-03-18T06:08:41.551Z,13.43
2023-03-18T06:13:03.723Z,16.35
2023-03-18T06:17:28.486Z,15.07
2023-03-18T06:21:51.089Z,14.10
2023-03-18T06:26:12.692Z,13.63
2023-03-18T06:30:42.342Z,14.95
2023-03-18T06:35:06.624Z,16.00
2023-03-18T06:39:29.256Z,16.10
2023-03-18T06:43:53.777Z,12.40
2023-03-18T06:48:15.659Z,12.10
2023-03-18T06:52:39.438Z,12.23
2023-03-18T06:57:07.687Z,13.60
2023-03-18T07:01:33.077Z,13.27
2023-03-18T07:05:56.196Z,13.30
2023-03-18T07:10:27.581Z,11.70
2023-03-18T07:15:00.382Z,13.40
2023-03-18T07:19:25.401Z,12.65
2023-03-18T07:23:47.390Z,17.80
2023-03-18T07:28:09.438Z,12.43
2023-03-18T07:32:31.849Z,13.63
2023-03-18T07:36:53.749Z,12.02
2023-03-18T07:41:15.940Z,12.02
2023-03-18T07:45:37.682Z,13.73
2023-03-18T07:50:00.223Z,14.52
2023-03-18T07:54:25.140Z,12.30
2023-03-18T07:58:48.071Z,12.90
2023-03-18T08:03:11.993Z,14.25
2023-03-18T08:07:34.877Z,12.02
2023-03-18T08:11:57.095Z,10.82
2023-03-18T08:16:18.961Z,10.45
2023-03-18T08:20:41.476Z,15.38
2023-03-18T08:25:03.636Z,14.48
2023-03-18T08:29:25.250Z,11.20
2023-03-18T08:33:47.672Z,11.02
2023-03-18T08:38:10.176Z,12.30
2023-03-18T08:42:31.911Z,9.68
2023-03-18T08:46:53.958Z,10.55
2023-03-18T08:51:16.988Z,9.93
2023-03-18T08:55:39.891Z,14.60
2023-03-18T09:00:02.034Z,12.57
2023-03-18T09:04:25.949Z,13.45
2023-03-18T09:08:48.032Z,19.15
2023-03-18T09:13:09.917Z,22.55
2023-03-18T09:17:48.872Z,8.77
2023-03-18T09:22:13.671Z,10.77
2023-03-18T09:26:35.505Z,8.50
2023-03-18T09:30:57.910Z,11.07
2023-03-18T09:35:20.465Z,7.72
2023-03-18T09:39:42.821Z,7.15
2023-03-18T09:44:37.684Z,11.30
2023-03-18T09:49:26.098Z,8.18
2023-03-18T09:53:54.572Z,6.35
2023-03-18T09:58:56.421Z,6.93
2023-03-18T10:03:42.732Z,11.27
2023-03-18T10:08:18.373Z,5.97
2023-03-18T10:12:48.449Z,5.00
2023-03-18T10:18:01.784Z,7.10
2023-03-18T10:23:10.230Z,8.45
2023-03-18T10:27:59.355Z,7.45
2023-03-18T10:32:49.036Z,6.03
2023-03-18T10:37:51.588Z,6.38
2023-03-18T10:42:30.043Z,5.55
2023-03-18T10:47:02.116Z,5.63
2023-03-18T10:52:01.179Z,9.48
2023-03-18T10:56:22.996Z,7.93
2023-03-18T11:00:45.411Z,9.57
2023-03-18T11:05:41.412Z,3.78
2023-03-18T11:10:18.711Z,7.63
2023-03-18T11:14:42.283Z,6.70
2023-03-18T11:19:41.919Z,4.97
2023-03-18T11:24:10.869Z,5.68
2023-03-18T11:28:33.359Z,8.68
2023-03-18T11:33:12.977Z,5.10
2023-03-18T11:37:35.785Z,9.15
2023-03-18T11:42:00.097Z,6.88
2023-03-18T11:46:25.541Z,5.35
2023-03-18T11:51:03.500Z,5.75
2023-03-18T11:55:58.566Z,6.00
2023-03-18T12:00:43.573Z,8.80
2023-03-18T12:05:53.338Z,4.57
2023-03-18T12:10:32.832Z,8.55
2023-03-18T12:15:11.626Z,4.40
2023-03-18T12:20:16.354Z,6.00
2023-03-18T12:25:08.576Z,8.88
2023-03-18T12:30:14.449Z,9.95
2023-03-18T12:35:21.734Z,6.82
2023-03-18T12:40:24.947Z,8.32
2023-03-18T12:45:05.561Z,9.73
2023-03-18T12:50:08.811Z,4.28
2023-03-18T12:55:15.839Z,5.88
2023-03-18T12:59:53.303Z,5.18
2023-03-18T13:04:31.507Z,5.95
2023-03-18T13:09:43.780Z,3.63
2023-03-18T13:14:45.642Z,7.22
2023-03-18T13:19:11.578Z,5.65
2023-03-18T13:24:05.657Z,4.35
2023-03-18T13:29:01.260Z,6.10
2023-03-18T13:33:43.571Z,4.10
2023-03-18T13:38:25.950Z,4.88
2023-03-18T13:42:49.678Z,8.10
2023-03-18T13:47:18.722Z,4.15
2023-03-18T13:51:44.187Z,4.57
2023-03-18T13:56:25.940Z,9.20
2023-03-18T14:01:00.497Z,7.05
2023-03-18T14:05:41.138Z,4.43
2023-03-18T14:10:18.313Z,7.68
2023-03-18T14:14:53.800Z,7.90
2023-03-18T14:19:32.436Z,5.32
2023-03-18T14:24:13.637Z,7.38
2023-03-18T14:28:50.736Z,2.83
2023-03-18T14:33:18.833Z,4.85
2023-03-18T14:38:17.538Z,6.53
2023-03-18T14:43:00.930Z,4.13
2023-03-18T14:47:48.726Z,6.80
2023-03-18T14:52:36.897Z,3.22
2023-03-18T14:57:02.821Z,2.88
2023-03-18T15:01:34.886Z,6.22
2023-03-18T15:06:00.789Z,4.80
2023-03-18T15:10:31.016Z,7.00
2023-03-18T15:14:53.007Z,4.78
2023-03-18T15:19:19.190Z,4.47
2023-03-18T15:23:53.046Z,3.58
2023-03-18T15:28:21.935Z,4.78
2023-03-18T15:32:49.862Z,5.68
2023-03-18T15:37:26.229Z,6.18
2023-03-18T15:41:53.558Z,7.70
2023-03-18T15:46:31.073Z,7.95
2023-03-18T15:51:00.664Z,6.18
2023-03-18T15:55:31.443Z,4.60
2023-03-18T15:59:54.402Z,6.05
2023-03-18T16:04:18.336Z,4.18
2023-03-18T16:08:40.106Z,7.00
2023-03-18T16:13:04.438Z,5.55
2023-03-18T16:17:26.871Z,6.05
2023-03-18T16:21:48.943Z,8.18
2023-03-18T16:26:18.450Z,7.28
2023-03-18T16:30:41.498Z,7.68
2023-03-18T16:35:03.792Z,12.05
2023-03-18T16:39:33.904Z,13.07
2023-03-18T16:43:56.033Z,13.90
2023-03-18T16:48:21.987Z,15.95
2023-03-18T16:52:45.175Z,18.15
2023-03-18T16:57:14.149Z,16.55
2023-03-18T17:01:36.022Z,17.35
2023-03-18T17:05:58.473Z,15.88
2023-03-18T17:10:24.853Z,16.50
2023-03-18T17:14:53.781Z,20.00
2023-03-18T17:19:16.911Z,20.08
2023-03-18T17:23:38.779Z,18.13
2023-03-18T17:28:06.240Z,19.33
2023-03-18T17:32:28.060Z,17.13
2023-03-18T17:36:50.214Z,18.73
2023-03-18T17:41:30.297Z,19.70
2023-03-18T17:45:52.160Z,22.40
2023-03-18T17:50:15.926Z,20.30
2023-03-18T17:54:37.935Z,21.05
2023-03-18T17:59:00.743Z,20.90
2023-03-18T18:03:28.627Z,23.05
2023-03-18T18:07:51.598Z,21.05
2023-03-18T18:12:25.447Z,23.52
2023-03-18T18:16:48.578Z,21.00
2023-03-18T18:21:18.312Z,27.10
2023-03-18T18:25:40.912Z,26.25
2023-03-18T18:30:02.748Z,20.27
2023-03-18T18:34:24.738Z,25.88
2023-03-18T18:38:46.676Z,22.92
2023-03-18T18:43:09.121Z,25.65
2023-03-18T18:47:32.790Z,21.70
2023-03-18T18:51:56.161Z,23.85
2023-03-18T18:56:36.856Z,24.10
2023-03-18T19:01:00.344Z,22.77
2023-03-18T19:05:22.393Z,21.73
2023-03-18T19:09:45.555Z,24.45
2023-03-18T19:14:33.923Z,25.17
2023-03-18T19:18:55.861Z,24.50
2023-03-18T19:23:24.887Z,27.55
2023-03-18T19:27:47.119Z,22.30
2023-03-18T19:32:19.123Z,22.70
2023-03-18T19:36:41.700Z,25.52
2023-03-18T19:41:03.830Z,27.52
2023-03-18T19:45:26.224Z,23.83
2023-03-18T19:49:47.810Z,22.67
2023-03-18T19:54:35.516Z,28.15
2023-03-18T19:58:59.298Z,24.15
2023-03-18T20:03:21.775Z,23.77
2023-03-18T20:07:43.711Z,28.63
2023-03-18T20:12:09.907Z,24.20
2023-03-18T20:16:32.199Z,25.73
2023-03-18T20:20:54.101Z,28.35
2023-03-18T20:25:30.688Z,25.88
2023-03-18T20:29:52.330Z,27.98
2023-03-18T20:34:14.404Z,30.63
2023-03-18T20:38:39.263Z,23.63
2023-03-18T20:43:01.700Z,26.83
2023-03-18T20:47:23.774Z,26.65
2023-03-18T20:51:45.835Z,27.55
2023-03-18T20:56:08.196Z,29.40
2023-03-18T21:00:33.337Z,29.95
2023-03-18T21:04:57.607Z,30.35
2023-03-18T21:09:19.620Z,25.27
2023-03-18T21:13:41.896Z,31.17
2023-03-18T21:18:04.752Z,27.00
2023-03-18T21:22:30.046Z,32.58
2023-03-18T21:27:03.686Z,27.88
2023-03-18T21:31:33.222Z,27.77
2023-03-18T21:35:57.222Z,26.15
2023-03-18T21:40:24.576Z,28.50
2023-03-18T21:44:46.425Z,28.00
2023-03-18T21:49:08.330Z,26.20
2023-03-18T21:53:30.166Z,28.23
2023-03-18T21:57:58.077Z,28.66
2023-03-18T22:02:25.221Z,27.85
2023-03-18T22:06:47.206Z,26.92
2023-03-18T22:11:22.104Z,27.27
2023-03-18T22:15:44.606Z,26.90
2023-03-18T22:20:07.363Z,26.20
2023-03-18T22:24:29.208Z,26.05
2023-03-18T22:28:51.117Z,27.33
2023-03-18T22:33:33.673Z,23.25
2023-03-18T22:37:56.196Z,25.88
2023-03-18T22:42:25.779Z,26.38
2023-03-18T22:46:47.897Z,25.33
2023-03-18T22:51:27.749Z,30.92
2023-03-18T22:55:51.676Z,29.55
2023-03-18T23:00:39.317Z,31.13
2023-03-18T23:05:00.978Z,25.17
2023-03-18T23:09:23.100Z,25.58
2023-03-18T23:13:50.196Z,24.23
2023-03-18T23:18:15.702Z,24.25
2023-03-18T23:22:37.362Z,30.77
2023-03-18T23:26:59.195Z,28.27
2023-03-18T23:31:21.366Z,23.73
2023-03-18T23:35:44.784Z,26.65
2023-03-18T23:40:07.467Z,27.27
2023-03-18T23:44:29.200Z,28.35
2023-03-18T23:48:51.414Z,23.52
2023-03-18T23:53:13.340Z,25.55
2023-03-18T23:57:35.676Z,26.80
